NTAA/PPT METAR and TAF weather

Enter ICAO airport designator
Station Type Date Time Source
NTAA METAR 2021/04/18 03:00 UTC NOAA

NTAA 180300Z 05008KT 9999 FEW025 29/23 Q1012 NOSIG


Station Type Date Time Source
NTAA Decoded METAR 2021/04/18 03:00 UTC NOAA

Tahiti-Faaa, French Polynesia (NTAA) 17-33S 149-37W 2M
Apr 17, 2021 - 11:00 PM EDT / 2021.04.18 0300 UTC
Wind: from the NE (050 degrees) at 9 MPH (8 KT):0
Visibility: greater than 7 mile(s):0
Sky conditions: mostly clear
Temperature: 84 F (29 C)
Dew Point: 73 F (23 C)
Relative Humidity: 70%
Pressure (altimeter): 29.88 in. Hg (1012 hPa)
ob: NTAA 180300Z 05008KT 9999 FEW025 29/23 Q1012 NOSIG
cycle: 3

Station Type Date Time Source
NTAA TAF 2021/04/17 18:21 UTC NOAA

TAF NTAA 171700Z 1718/1824 05010KT 9999 FEW023
BECMG 1802/1804 VRB05KT PROB30
TEMPO 1821/1824 05012KT

Example: see airport list